Buckley Air Force Base
KBKF : now visible

Airfield :











YOU CAN JOIN US ON...

 
LOGIN :

Register | Disclaimer

   EN    FR    IT 

 









Legend :    VFR   Marginal VFR   IFR   Intensive IFR   Very Intensive IFR
Visi :
Ceiling :
>= 8 km
>= 3000ft
5 to 8 km
1000 to 3000 ft
1500m to 5 km
500 to 1000 ft
800 to 1500m
200 to 500 ft
< 800m
< 200 ft
Symbols :   Thunderstorms  Fog  Heavy snow  Heavy precipitations  Wind > 20 kt






- Airport Elevation : 5662 ft


KBKF - Buckley Air Force Base

CURRENT METAR :
  • 110558Z 21008KT 10SM FEW220 20/04 A3013 RMK AO2A SLP124 T01980039 10306 20197 55004

EXPIRED METARs :
  • 110458Z 20006KT 10SM FEW220 21/03 A3012 RMK AO2A SLP123 T02100032
  • 110358Z 16010KT 10SM FEW150 SCT220 23/03 A3012 RMK AO2A SLP126 T02320032

TAF TAF KBKF
Valid from the 11 at 01:00 until the 12 at 07:00 UTC


110100Z 1101/1207 12012KT 9999 SKC QNH3008INS
BECMG 1103/1104 15009KT 9999 FEW200 QNH3007INS
BECMG 1113/1114 23012KT 9999 SCT190 QNH3009INS
TEMPO 1119/1123 BKN170
BECMG 1202/1203 15009KT 9999 FEW180 QNH2998INS TX35/1121Z TN16/1112Z
KZDV FIR / North America



MET'MAP, your aeronautical weather chart ! - Copyright ORBIFLY December 2007 - Disclaimer

ORBIFLY MET'MAP TEAM :

Programming & Development : Alexandra Zaïnal
Concept & original design : Baudouin d'Aumeries
Assistance for programming : Marc-Olivier Méhu
Technical & hardware support : Manuel Goepfert

Contact : metmap@orbifly.com




SOURCES & CREDITS :

   NOAA       Earth
Advisory